createdAt,value
2022-09-21T00:01:20.855Z,7.70
2022-09-21T00:03:52.315Z,7.75
2022-09-21T00:06:21.145Z,7.77
2022-09-21T00:08:49.271Z,7.76
2022-09-21T00:11:27.686Z,7.73
2022-09-21T00:13:57.869Z,7.71
2022-09-21T00:16:25.807Z,7.74
2022-09-21T00:18:54.170Z,7.74
2022-09-21T00:21:22.161Z,7.80
2022-09-21T00:23:50.305Z,7.82
2022-09-21T00:26:23.097Z,7.85
2022-09-21T00:28:55.069Z,7.77
2022-09-21T00:31:23.596Z,7.74
2022-09-21T00:33:52.094Z,7.73
2022-09-21T00:36:21.339Z,7.73
2022-09-21T00:38:50.418Z,7.69
2022-09-21T00:41:18.822Z,7.67
2022-09-21T00:43:48.816Z,7.64
2022-09-21T00:46:28.668Z,7.69
2022-09-21T00:48:57.623Z,7.75
2022-09-21T00:51:26.049Z,7.80
2022-09-21T00:53:56.985Z,7.83
2022-09-21T00:56:25.263Z,7.87
2022-09-21T00:58:54.490Z,7.89
2022-09-21T01:01:22.547Z,7.91
2022-09-21T01:03:51.850Z,7.92
2022-09-21T01:06:21.447Z,7.85
2022-09-21T01:08:54.561Z,7.78
2022-09-21T01:11:41.451Z,7.74
2022-09-21T01:14:15.127Z,7.70
2022-09-21T01:16:53.161Z,7.67
2022-09-21T01:19:24.143Z,7.67
2022-09-21T01:21:52.177Z,7.68
2022-09-21T01:24:21.400Z,7.79
2022-09-21T01:27:00.522Z,7.82
2022-09-21T01:29:33.498Z,7.85
2022-09-21T01:32:13.959Z,7.81
2022-09-21T01:34:50.327Z,7.75
2022-09-21T01:37:22.911Z,7.72
2022-09-21T01:39:53.449Z,7.70
2022-09-21T01:42:22.119Z,7.72
2022-09-21T01:44:50.565Z,7.67
2022-09-21T01:47:19.207Z,7.64
2022-09-21T01:49:50.248Z,7.61
2022-09-21T01:52:21.587Z,7.57
2022-09-21T01:54:53.143Z,7.59
2022-09-21T01:57:35.042Z,7.65
2022-09-21T02:00:04.158Z,7.67
2022-09-21T02:02:39.463Z,7.66
2022-09-21T02:05:08.196Z,7.69
2022-09-21T02:07:38.093Z,7.71
2022-09-21T02:10:07.849Z,7.73
2022-09-21T02:12:35.694Z,7.71
2022-09-21T02:15:04.009Z,7.69
2022-09-21T02:17:32.348Z,7.69
2022-09-21T02:20:19.750Z,7.65
2022-09-21T02:22:47.532Z,7.64
2022-09-21T02:25:24.170Z,7.64
2022-09-21T02:28:12.237Z,7.62
2022-09-21T02:30:41.330Z,7.61
2022-09-21T02:33:15.161Z,7.60
2022-09-21T02:35:52.744Z,7.59
2022-09-21T02:38:30.243Z,7.62
2022-09-21T02:41:25.071Z,7.62
2022-09-21T02:43:59.180Z,7.64
2022-09-21T02:46:37.507Z,7.63
2022-09-21T02:49:11.272Z,7.58
2022-09-21T02:51:43.321Z,7.51
2022-09-21T02:54:13.390Z,7.50
2022-09-21T02:56:42.757Z,7.49
2022-09-21T02:59:11.072Z,7.51
2022-09-21T03:01:40.704Z,7.51
2022-09-21T03:04:09.109Z,7.46
2022-09-21T03:06:37.200Z,7.48
2022-09-21T03:09:05.171Z,7.48
2022-09-21T03:11:34.105Z,7.47
2022-09-21T03:14:03.574Z,7.52
2022-09-21T03:16:31.542Z,7.58
2022-09-21T03:18:59.532Z,7.66
2022-09-21T03:21:27.689Z,7.71
2022-09-21T03:23:55.519Z,7.71
2022-09-21T03:26:23.529Z,7.78
2022-09-21T03:28:53.649Z,7.83
2022-09-21T03:31:22.560Z,7.88
2022-09-21T03:33:50.719Z,7.80
2022-09-21T03:36:18.546Z,7.79
2022-09-21T03:38:46.762Z,7.76
2022-09-21T03:41:15.552Z,7.70
2022-09-21T03:43:43.541Z,7.66
2022-09-21T03:46:11.888Z,7.75
2022-09-21T03:48:42.680Z,7.81
2022-09-21T03:51:10.732Z,7.88
2022-09-21T03:53:38.868Z,7.96
2022-09-21T03:56:06.878Z,7.96
2022-09-21T03:58:35.342Z,7.97
2022-09-21T04:01:03.748Z,8.01
2022-09-21T04:03:31.900Z,8.04
2022-09-21T04:06:00.087Z,7.98
2022-09-21T04:08:28.071Z,8.05
2022-09-21T04:10:56.529Z,8.08
2022-09-21T04:13:25.113Z,8.01
2022-09-21T04:15:53.011Z,7.91
2022-09-21T04:18:21.261Z,7.90
2022-09-21T04:20:49.272Z,7.86
2022-09-21T04:23:17.304Z,7.81
2022-09-21T04:25:46.798Z,7.77
2022-09-21T04:28:14.786Z,7.78
2022-09-21T04:30:42.788Z,7.85
2022-09-21T04:33:10.950Z,7.90
2022-09-21T04:35:39.322Z,7.88
2022-09-21T04:38:07.365Z,7.87
2022-09-21T04:40:35.680Z,7.88
2022-09-21T04:43:03.734Z,7.83
2022-09-21T04:45:32.539Z,7.76
2022-09-21T04:48:00.606Z,7.72
2022-09-21T04:50:28.610Z,7.75
2022-09-21T04:53:04.658Z,7.80
2022-09-21T04:55:32.703Z,7.85
2022-09-21T04:58:01.097Z,7.88
2022-09-21T05:00:29.161Z,7.90
2022-09-21T05:02:57.007Z,7.90
2022-09-21T05:05:25.019Z,7.88
2022-09-21T05:07:52.957Z,7.91
2022-09-21T05:10:20.824Z,7.84
2022-09-21T05:12:48.948Z,7.82
2022-09-21T05:15:17.191Z,7.88
2022-09-21T05:17:45.545Z,7.93
2022-09-21T05:20:13.516Z,7.95
2022-09-21T05:22:41.465Z,7.93
2022-09-21T05:25:09.805Z,7.87
2022-09-21T05:27:37.708Z,7.85
2022-09-21T05:30:06.545Z,7.89
2022-09-21T05:33:04.378Z,8.55
2022-09-21T05:35:41.714Z,9.22
2022-09-21T05:38:18.142Z,9.49
2022-09-21T05:40:47.769Z,9.64
2022-09-21T05:43:16.789Z,9.70
2022-09-21T05:45:47.914Z,9.61
2022-09-21T05:48:18.812Z,9.48
2022-09-21T05:50:46.724Z,9.26
2022-09-21T05:53:17.787Z,9.15
2022-09-21T05:56:03.680Z,9.02
2022-09-21T05:58:31.894Z,8.88
2022-09-21T06:01:12.381Z,8.92
2022-09-21T06:03:42.439Z,8.99
2022-09-21T06:06:10.618Z,9.01
2022-09-21T06:08:38.580Z,9.07
2022-09-21T06:11:06.539Z,9.10
2022-09-21T06:13:34.634Z,9.10
2022-09-21T06:16:03.634Z,9.14
2022-09-21T06:18:31.810Z,9.12
2022-09-21T06:20:59.914Z,9.13
2022-09-21T06:23:27.949Z,9.09
2022-09-21T06:25:58.668Z,9.10
2022-09-21T06:28:28.140Z,9.25
2022-09-21T06:30:57.619Z,9.36
2022-09-21T06:33:26.219Z,9.47
2022-09-21T06:35:56.407Z,9.58
2022-09-21T06:38:25.126Z,9.70
2022-09-21T06:40:53.373Z,9.84
2022-09-21T06:43:21.656Z,9.87
2022-09-21T06:45:54.332Z,9.92
2022-09-21T06:48:22.927Z,9.97
2022-09-21T06:50:51.656Z,9.96
2022-09-21T06:53:19.895Z,9.98
2022-09-21T06:55:47.856Z,9.89
2022-09-21T06:58:15.928Z,9.90
2022-09-21T07:00:44.246Z,9.92
2022-09-21T07:03:13.654Z,9.97
2022-09-21T07:05:46.703Z,10.03
2022-09-21T07:11:03.257Z,10.30
2022-09-21T07:13:31.402Z,10.42
2022-09-21T07:16:03.187Z,10.51
2022-09-21T07:18:42.449Z,10.59
2022-09-21T07:21:12.170Z,10.66
2022-09-21T07:23:40.057Z,10.71
2022-09-21T07:26:10.334Z,10.77
2022-09-21T07:28:38.593Z,10.81
2022-09-21T07:31:08.875Z,10.83
2022-09-21T07:33:37.598Z,10.89
2022-09-21T07:36:10.542Z,10.91
2022-09-21T07:38:40.013Z,10.85
2022-09-21T07:41:09.397Z,10.74
2022-09-21T07:43:40.647Z,10.72
2022-09-21T07:46:10.628Z,10.70
2022-09-21T07:48:38.735Z,10.69
2022-09-21T07:51:08.248Z,10.68
2022-09-21T07:53:38.004Z,10.69
2022-09-21T07:56:07.676Z,10.67
2022-09-21T07:58:55.190Z,10.78
2022-09-21T08:01:24.459Z,10.70
2022-09-21T08:03:53.697Z,10.79
2022-09-21T08:06:22.378Z,10.71
2022-09-21T08:08:55.109Z,10.89
2022-09-21T08:11:27.476Z,11.16
2022-09-21T08:13:57.511Z,11.29
2022-09-21T08:16:26.211Z,11.33
2022-09-21T08:18:54.324Z,11.39
2022-09-21T08:21:22.567Z,11.36
2022-09-21T08:23:50.674Z,11.14
2022-09-21T08:26:19.904Z,11.20
2022-09-21T08:28:50.099Z,11.27
2022-09-21T08:31:19.745Z,11.25
2022-09-21T08:33:50.067Z,11.14
2022-09-21T08:36:18.830Z,11.04
2022-09-21T08:38:47.327Z,10.98
2022-09-21T08:41:17.536Z,10.97
2022-09-21T08:43:48.938Z,10.98
2022-09-21T08:46:19.950Z,11.03
2022-09-21T08:48:56.601Z,11.14
2022-09-21T08:51:30.614Z,11.13
2022-09-21T08:54:12.383Z,11.06
2022-09-21T08:57:03.567Z,11.01
2022-09-21T08:59:29.342Z,11.24
2022-09-21T09:02:00.451Z,11.44
2022-09-21T09:04:40.019Z,11.63
2022-09-21T09:07:27.460Z,11.96
2022-09-21T09:10:13.920Z,11.85
2022-09-21T09:12:44.935Z,11.57
2022-09-21T09:15:13.126Z,11.38
2022-09-21T09:17:48.459Z,11.25
2022-09-21T09:20:16.496Z,11.05
2022-09-21T09:23:01.060Z,11.01
2022-09-21T09:25:34.040Z,10.91
2022-09-21T09:28:05.987Z,10.84
2022-09-21T09:30:35.620Z,10.79
2022-09-21T09:33:10.465Z,10.83
2022-09-21T09:36:04.578Z,10.86
2022-09-21T09:38:42.286Z,11.06
2022-09-21T09:41:32.072Z,11.25
2022-09-21T09:44:00.193Z,11.45
2022-09-21T09:46:34.984Z,11.68
2022-09-21T09:49:02.929Z,11.82
2022-09-21T09:51:32.513Z,11.94
2022-09-21T09:54:01.485Z,12.03
2022-09-21T09:56:31.736Z,12.15
2022-09-21T09:59:07.043Z,12.20
2022-09-21T10:01:49.947Z,12.13
2022-09-21T10:04:18.434Z,11.91
2022-09-21T10:06:47.175Z,11.94
2022-09-21T10:09:28.339Z,12.05
2022-09-21T10:12:06.851Z,11.98
2022-09-21T10:14:38.219Z,12.03
2022-09-21T10:17:07.922Z,12.01
2022-09-21T10:19:38.165Z,12.01
2022-09-21T10:22:06.290Z,12.03
2022-09-21T10:24:42.924Z,11.82
2022-09-21T10:27:14.347Z,11.81
2022-09-21T10:29:47.038Z,12.02
2022-09-21T10:32:18.989Z,12.14
2022-09-21T10:35:08.382Z,12.03
2022-09-21T10:37:38.817Z,12.03
2022-09-21T10:40:26.425Z,12.19
2022-09-21T10:42:56.445Z,12.33
2022-09-21T10:45:24.746Z,12.51
2022-09-21T10:47:52.831Z,12.55
2022-09-21T10:50:29.192Z,12.41
2022-09-21T10:53:01.812Z,12.14
2022-09-21T10:55:32.282Z,12.21
2022-09-21T10:58:00.755Z,12.29
2022-09-21T11:00:35.514Z,12.39
2022-09-21T11:03:23.730Z,12.56
2022-09-21T11:05:52.331Z,12.76
2022-09-21T11:08:24.488Z,12.74
2022-09-21T11:11:28.196Z,12.89
2022-09-21T11:14:10.839Z,13.04
2022-09-21T11:16:41.749Z,12.98
2022-09-21T11:19:24.806Z,12.94
2022-09-21T11:22:02.507Z,12.70
2022-09-21T11:24:34.029Z,12.61
2022-09-21T11:27:12.859Z,12.45
2022-09-21T11:30:04.400Z,12.19
2022-09-21T11:32:41.530Z,12.00
2022-09-21T11:35:15.871Z,11.73
2022-09-21T11:38:01.571Z,11.73
2022-09-21T11:40:41.685Z,11.57
2022-09-21T11:43:21.562Z,11.50
2022-09-21T11:46:10.107Z,11.53
2022-09-21T11:48:56.879Z,11.68
2022-09-21T11:51:25.354Z,11.79
2022-09-21T11:54:13.057Z,11.88
2022-09-21T11:56:52.293Z,12.02
2022-09-21T11:59:21.443Z,12.14
2022-09-21T12:02:00.358Z,12.32
2022-09-21T12:04:38.018Z,12.14
2022-09-21T12:07:12.281Z,12.11
2022-09-21T12:10:06.229Z,12.03
2022-09-21T12:12:52.005Z,11.83
2022-09-21T12:15:29.194Z,11.75
2022-09-21T12:18:08.120Z,11.65
2022-09-21T12:20:49.512Z,11.57
2022-09-21T12:23:21.063Z,11.60
2022-09-21T12:25:54.898Z,11.74
2022-09-21T12:28:22.879Z,11.77
2022-09-21T12:30:59.753Z,11.75
2022-09-21T12:33:31.034Z,11.85
2022-09-21T12:36:05.100Z,11.95
2022-09-21T12:38:56.223Z,12.08
2022-09-21T12:41:39.661Z,12.24
2022-09-21T12:44:26.427Z,12.36
2022-09-21T12:47:09.386Z,12.36
2022-09-21T12:49:48.271Z,12.47
2022-09-21T12:52:24.665Z,12.47
2022-09-21T12:54:52.664Z,12.37
2022-09-21T12:57:45.976Z,12.28
2022-09-21T13:00:22.483Z,12.07
2022-09-21T13:03:14.860Z,11.82
2022-09-21T13:05:57.731Z,11.62
2022-09-21T13:08:33.384Z,11.60
2022-09-21T13:11:05.100Z,11.79
2022-09-21T13:13:53.106Z,11.90
2022-09-21T13:16:32.206Z,11.97
2022-09-21T13:19:03.470Z,12.02
2022-09-21T13:21:33.084Z,12.12
2022-09-21T13:24:05.411Z,12.17
2022-09-21T13:26:33.568Z,12.23
2022-09-21T13:29:07.404Z,12.33
2022-09-21T13:31:41.739Z,12.37
2022-09-21T13:34:16.175Z,12.33
2022-09-21T13:36:44.247Z,12.40
2022-09-21T13:39:17.777Z,12.37
2022-09-21T13:44:34.682Z,12.43
2022-09-21T13:47:02.866Z,12.41
2022-09-21T13:49:34.210Z,12.46
2022-09-21T13:52:05.149Z,12.46
2022-09-21T13:54:39.264Z,12.35
2022-09-21T13:57:19.390Z,12.26
2022-09-21T13:59:57.352Z,12.16
2022-09-21T14:02:28.580Z,12.05
2022-09-21T14:04:56.910Z,12.02
2022-09-21T14:07:29.068Z,11.96
2022-09-21T14:09:59.655Z,11.95
2022-09-21T14:12:32.795Z,11.96
2022-09-21T14:15:16.280Z,11.97
2022-09-21T14:17:44.472Z,11.98
2022-09-21T14:20:35.842Z,12.03
2022-09-21T14:23:16.503Z,12.09
2022-09-21T14:25:49.640Z,12.03
2022-09-21T14:28:19.859Z,11.92
2022-09-21T14:30:54.588Z,11.76
2022-09-21T14:33:26.512Z,11.59
2022-09-21T14:35:55.343Z,11.56
2022-09-21T14:38:28.845Z,11.47
2022-09-21T14:40:59.824Z,11.36
2022-09-21T14:43:33.957Z,11.27
2022-09-21T14:46:08.029Z,11.07
2022-09-21T14:48:59.310Z,10.96
2022-09-21T14:51:38.329Z,10.86
2022-09-21T14:54:26.444Z,10.77
2022-09-21T14:56:55.625Z,10.77
2022-09-21T14:59:23.985Z,10.70
2022-09-21T15:02:03.682Z,10.68
2022-09-21T15:04:42.720Z,10.62
2022-09-21T15:07:39.101Z,10.64
2022-09-21T15:10:37.893Z,10.67
2022-09-21T15:13:19.997Z,10.72
2022-09-21T15:15:54.106Z,10.82
2022-09-21T15:18:22.713Z,10.85
2022-09-21T15:21:04.289Z,10.88
2022-09-21T15:23:41.576Z,10.87
2022-09-21T15:26:19.320Z,10.87
2022-09-21T15:29:08.872Z,10.82
2022-09-21T15:31:40.375Z,10.82
2022-09-21T15:34:09.427Z,10.83
2022-09-21T15:36:39.011Z,10.76
2022-09-21T15:39:07.771Z,10.66
2022-09-21T15:41:41.814Z,10.56
2022-09-21T15:44:15.929Z,10.45
2022-09-21T15:46:47.016Z,10.35
2022-09-21T15:49:21.498Z,10.28
2022-09-21T15:52:01.598Z,10.24
2022-09-21T15:54:32.428Z,10.22
2022-09-21T15:57:05.898Z,10.20
2022-09-21T15:59:36.320Z,10.17
2022-09-21T16:02:11.916Z,10.12
2022-09-21T16:04:49.528Z,10.08
2022-09-21T16:07:46.649Z,10.04
2022-09-21T16:10:29.652Z,10.01
2022-09-21T16:13:01.198Z,10.01
2022-09-21T16:15:32.287Z,10.00
2022-09-21T16:18:05.343Z,9.96
2022-09-21T16:20:44.158Z,9.92
2022-09-21T16:23:17.453Z,9.88
2022-09-21T16:25:53.268Z,9.91
2022-09-21T16:28:21.690Z,9.91
2022-09-21T16:30:51.242Z,9.90
2022-09-21T16:33:39.974Z,9.89
2022-09-21T16:36:34.081Z,9.90
2022-09-21T16:39:06.293Z,9.91
2022-09-21T16:41:40.630Z,9.93
2022-09-21T16:44:17.920Z,9.96
2022-09-21T16:46:46.380Z,9.98
2022-09-21T16:49:18.694Z,10.01
2022-09-21T16:51:47.451Z,10.02
2022-09-21T16:54:16.400Z,10.02
2022-09-21T16:56:44.543Z,10.01
2022-09-21T16:59:14.371Z,10.02
2022-09-21T17:01:43.828Z,10.01
2022-09-21T17:04:13.670Z,9.97
2022-09-21T17:06:41.660Z,9.93
2022-09-21T17:09:20.440Z,9.90
2022-09-21T17:11:50.020Z,9.85
2022-09-21T17:14:19.231Z,9.79
2022-09-21T17:16:49.212Z,9.75
2022-09-21T17:19:17.775Z,9.72
2022-09-21T17:21:46.898Z,9.68
2022-09-21T17:24:27.674Z,9.62
2022-09-21T17:27:04.122Z,9.55
2022-09-21T17:29:32.397Z,9.50
2022-09-21T17:32:00.386Z,9.48
2022-09-21T17:34:29.053Z,9.47
2022-09-21T17:36:56.985Z,9.49
2022-09-21T17:39:24.934Z,9.44
2022-09-21T17:41:52.962Z,9.42
2022-09-21T17:44:34.348Z,9.40
2022-09-21T17:47:18.192Z,9.39
2022-09-21T17:49:46.957Z,9.38
2022-09-21T17:52:35.097Z,9.34
2022-09-21T17:55:08.577Z,9.30
2022-09-21T17:57:46.463Z,9.28
2022-09-21T18:00:19.423Z,9.23
2022-09-21T18:02:47.708Z,9.21
2022-09-21T18:05:21.866Z,9.17
2022-09-21T18:07:51.179Z,9.19
2022-09-21T18:10:21.246Z,9.23
2022-09-21T18:12:57.637Z,9.20
2022-09-21T18:15:34.998Z,9.20
2022-09-21T18:18:19.387Z,9.17
2022-09-21T18:20:51.249Z,9.14
2022-09-21T18:23:22.892Z,9.14
2022-09-21T18:25:57.352Z,9.10
2022-09-21T18:28:28.143Z,9.11
2022-09-21T18:31:05.673Z,9.07
2022-09-21T18:33:56.995Z,9.08
2022-09-21T18:36:24.819Z,9.05
2022-09-21T18:39:15.975Z,9.03
2022-09-21T18:41:55.994Z,9.00
2022-09-21T18:44:35.118Z,8.95
2022-09-21T18:47:10.965Z,8.93
2022-09-21T18:49:52.364Z,8.91
2022-09-21T18:52:46.875Z,8.94
2022-09-21T18:55:25.590Z,9.01
2022-09-21T18:57:57.293Z,9.17
2022-09-21T19:00:31.721Z,9.26
2022-09-21T19:03:18.063Z,9.30
2022-09-21T19:06:13.390Z,9.32
2022-09-21T19:08:41.229Z,9.34
2022-09-21T19:11:16.792Z,9.38
2022-09-21T19:13:56.116Z,9.42
2022-09-21T19:16:29.201Z,9.43
2022-09-21T19:19:05.389Z,9.39
2022-09-21T19:21:50.780Z,9.31
2022-09-21T19:24:23.968Z,9.22
2022-09-21T19:27:11.122Z,9.17
2022-09-21T19:29:39.444Z,9.14
2022-09-21T19:32:18.371Z,9.12
2022-09-21T19:34:46.481Z,9.14
2022-09-21T19:37:14.518Z,9.18
2022-09-21T19:39:43.000Z,9.19
2022-09-21T19:42:13.856Z,9.16
2022-09-21T19:44:44.882Z,9.13
2022-09-21T19:47:29.850Z,9.16
2022-09-21T19:50:18.016Z,9.16
2022-09-21T19:52:46.480Z,9.15
2022-09-21T19:55:38.160Z,9.11
2022-09-21T19:58:25.355Z,9.06
2022-09-21T20:00:54.981Z,9.04
2022-09-21T20:03:31.617Z,9.00
2022-09-21T20:06:00.129Z,8.98
2022-09-21T20:08:28.678Z,8.95
2022-09-21T20:11:00.850Z,8.94
2022-09-21T20:13:36.093Z,8.92
2022-09-21T20:16:04.164Z,8.92
2022-09-21T20:18:34.889Z,8.95
2022-09-21T20:21:03.020Z,8.96
2022-09-21T20:23:32.289Z,8.99
2022-09-21T20:26:03.727Z,9.03
2022-09-21T20:28:31.839Z,9.02
2022-09-21T20:30:59.924Z,8.97
2022-09-21T20:33:29.937Z,8.99
2022-09-21T20:35:57.894Z,8.99
2022-09-21T20:38:25.815Z,8.96
2022-09-21T20:40:54.236Z,8.96
2022-09-21T20:43:23.312Z,8.98
2022-09-21T20:45:51.436Z,9.00
2022-09-21T20:48:20.097Z,8.99
2022-09-21T20:50:49.172Z,8.93
2022-09-21T20:53:18.005Z,8.95
2022-09-21T20:55:53.204Z,8.95
2022-09-21T20:58:21.687Z,8.91
2022-09-21T21:00:50.957Z,8.91
2022-09-21T21:03:21.005Z,8.89
2022-09-21T21:05:49.077Z,8.87
2022-09-21T21:08:17.158Z,8.84
2022-09-21T21:10:46.765Z,8.81
2022-09-21T21:13:14.705Z,8.78
2022-09-21T21:15:42.805Z,8.74
2022-09-21T21:18:12.514Z,8.73
2022-09-21T21:20:41.132Z,8.73
2022-09-21T21:23:09.070Z,8.72
2022-09-21T21:25:37.072Z,8.74
2022-09-21T21:28:05.115Z,8.74
2022-09-21T21:30:33.087Z,8.72
2022-09-21T21:33:01.985Z,8.73
2022-09-21T21:35:31.589Z,8.74
2022-09-21T21:37:59.690Z,8.77
2022-09-21T21:40:27.797Z,8.75
2022-09-21T21:42:56.527Z,8.73
2022-09-21T21:45:24.439Z,8.70
2022-09-21T21:47:54.311Z,8.70
2022-09-21T21:50:22.999Z,8.72
2022-09-21T21:52:50.873Z,8.78
2022-09-21T21:55:18.816Z,8.81
2022-09-21T21:57:46.810Z,8.81
2022-09-21T22:00:15.086Z,8.80
2022-09-21T22:02:42.994Z,8.81
2022-09-21T22:05:11.028Z,8.85
2022-09-21T22:07:39.569Z,8.88
2022-09-21T22:10:09.226Z,8.95
2022-09-21T22:12:37.068Z,8.95
2022-09-21T22:15:05.315Z,8.99
2022-09-21T22:17:33.342Z,8.98
2022-09-21T22:20:01.287Z,8.96
2022-09-21T22:22:29.284Z,8.94
2022-09-21T22:24:57.253Z,8.96
2022-09-21T22:27:25.744Z,8.95
2022-09-21T22:29:53.589Z,8.94
2022-09-21T22:32:21.520Z,8.89
2022-09-21T22:34:50.586Z,8.87
2022-09-21T22:37:18.643Z,8.84
2022-09-21T22:39:47.131Z,8.83
2022-09-21T22:42:15.097Z,8.83
2022-09-21T22:44:42.999Z,8.81
2022-09-21T22:47:11.038Z,8.82
2022-09-21T22:49:39.046Z,8.82
2022-09-21T22:52:07.718Z,8.83
2022-09-21T22:54:35.646Z,8.84
2022-09-21T22:57:04.086Z,8.84
2022-09-21T22:59:32.129Z,8.87
2022-09-21T23:02:00.195Z,8.88
2022-09-21T23:04:28.327Z,8.85
2022-09-21T23:06:56.287Z,8.84
2022-09-21T23:09:24.320Z,8.83
2022-09-21T23:11:53.723Z,8.81
2022-09-21T23:14:22.831Z,8.74
2022-09-21T23:16:51.092Z,8.79
2022-09-21T23:19:19.063Z,8.79
2022-09-21T23:21:49.775Z,8.83
2022-09-21T23:24:18.589Z,8.84
2022-09-21T23:26:47.028Z,8.82
2022-09-21T23:29:15.710Z,8.81
2022-09-21T23:31:45.760Z,8.79
2022-09-21T23:34:15.001Z,8.78
2022-09-21T23:36:44.076Z,8.80
2022-09-21T23:39:13.491Z,8.80
2022-09-21T23:41:41.386Z,8.78
2022-09-21T23:44:09.834Z,8.77
2022-09-21T23:46:38.868Z,8.75
2022-09-21T23:49:07.207Z,8.73
2022-09-21T23:51:35.757Z,8.75
2022-09-21T23:54:04.077Z,8.79
2022-09-21T23:56:32.668Z,8.74
2022-09-21T23:59:01.060Z,8.71
